Time;durP1;ratioP1;P1;durP2;ratioP2;P2;SDS_P1;SDS_P2;PMS_P1;PMS_P2;Temp;Humidity;BMP_temperature;BMP_pressure;BME280_temperature;BME280_humidity;BME280_pressure;Samples;Min_cycle;Max_cycle;Signal;HPM_P1;HPM_P2
2023/01/23 00:00:45;;;;;;;;;;;;;;;9.24;51.14;100470.13;4482692;32;34090;-66
2023/01/23 00:03:13;;;;;;;;;;;;;;;9.12;52.02;100459.28;4482251;32;33497;-65
2023/01/23 00:05:40;;;;;;;;;;;;;;;9.21;51.86;100459.62;4480317;32;33838;-66
2023/01/23 00:08:08;;;;;;;;;;;;;;;9.47;50.81;100460.78;4476298;32;34657;-67
2023/01/23 00:10:36;;;;;;;;;;;;;;;9.33;51.16;100456.22;4477263;32;34311;-66
2023/01/23 00:13:04;;;;;;;;;;;;;;;9.41;51.16;100445.12;4475897;32;33513;-67
2023/01/23 00:15:32;;;;;;;;;;;;;;;9.65;50.14;100441.94;4474376;32;35042;-67
2023/01/23 00:17:59;;;;;;;;;;;;;;;9.43;50.74;100448.53;4480551;32;33982;-67
2023/01/23 00:20:26;;;;;;;;;;;;;;;9.18;51.31;100438.44;4474946;32;34332;-66
2023/01/23 00:22:54;;;;;;;;;;;;;;;9.15;52.21;100435.94;4476957;32;33126;-67
2023/01/23 00:25:21;;;;;;;;;;;;;;;9.04;52.12;100444.56;4478457;32;32410;-66
2023/01/23 00:27:48;;;;;;;;;;;;;;;9.39;51.14;100447.00;4471486;31;34218;-66
2023/01/23 00:30:16;;;;;;;;;;;;;;;9.14;51.52;100444.03;4470504;32;34899;-65
2023/01/23 00:32:44;;;;;;;;;;;;;;;9.06;52.20;100448.00;4471827;32;33436;-66
2023/01/23 00:35:11;;;;;;;;;;;;;;;9.21;51.93;100442.72;4475803;31;35331;-66
2023/01/23 00:37:38;;;;;;;;;;;;;;;9.04;53.22;100438.38;4468008;32;35555;-66
2023/01/23 00:40:06;;;;;;;;;;;;;;;9.27;51.44;100448.56;4471482;32;34796;-66
2023/01/23 00:42:33;;;;;;;;;;;;;;;8.96;52.55;100441.50;4473516;32;33560;-65
2023/01/23 00:45:00;;;;;;;;;;;;;;;9.17;51.84;100438.53;4468033;32;32678;-65
2023/01/23 00:47:28;;;;;;;;;;;;;;;9.28;51.71;100428.09;4467005;32;34354;-67
2023/01/23 00:49:57;;;;;;;;;;;;;;;9.23;52.08;100439.03;4471899;31;35477;-68
2023/01/23 00:52:25;;;;;;;;;;;;;;;8.95;52.42;100438.88;4466953;32;33550;-66
2023/01/23 00:54:53;;;;;;;;;;;;;;;8.97;52.47;100437.00;4472590;32;34207;-65
2023/01/23 00:57:20;;;;;;;;;;;;;;;8.98;52.75;100455.59;4481218;32;34238;-66
2023/01/23 00:59:47;;;;;;;;;;;;;;;9.07;52.17;100454.22;4479520;32;35303;-66
2023/01/23 01:02:15;;;;;;;;;;;;;;;9.20;52.24;100446.34;4475775;31;32438;-66
2023/01/23 01:04:42;;;;;;;;;;;;;;;9.07;53.56;100438.19;4465892;32;34209;-68
2023/01/23 01:07:09;;;;;;;;;;;;;;;9.10;53.79;100441.53;4466008;32;34234;-67
2023/01/23 01:09:37;;;;;;;;;;;;;;;9.53;51.85;100435.50;4477161;32;34547;-66
2023/01/23 01:12:05;;;;;;;;;;;;;;;9.47;52.03;100442.09;4466109;32;34437;-66
2023/01/23 01:14:32;;;;;;;;;;;;;;;9.60;52.04;100442.22;4465531;32;34617;-67
2023/01/23 01:17:00;;;;;;;;;;;;;;;9.22;52.98;100431.97;4469422;32;34020;-67
2023/01/23 01:19:28;;;;;;;;;;;;;;;9.51;52.31;100426.72;4479558;32;35426;-65
2023/01/23 01:21:55;;;;;;;;;;;;;;;9.60;52.22;100430.63;4449212;32;898034;-66
2023/01/23 01:24:23;;;;;;;;;;;;;;;9.63;52.02;100425.12;4481691;32;33979;-64
2023/01/23 01:26:50;;;;;;;;;;;;;;;9.59;51.83;100423.59;4473948;32;34444;-67
2023/01/23 01:29:17;;;;;;;;;;;;;;;9.66;51.87;100425.81;4470121;32;33988;-67
2023/01/23 01:31:45;;;;;;;;;;;;;;;9.70;51.89;100418.47;4468237;32;33779;-66
2023/01/23 01:34:12;;;;;;;;;;;;;;;9.55;52.75;100418.41;4471345;32;33900;-66
2023/01/23 01:36:39;;;;;;;;;;;;;;;9.82;51.97;100415.03;4468066;32;35010;-67
2023/01/23 01:39:07;;;;;;;;;;;;;;;9.84;51.73;100420.28;4470680;31;35071;-67
2023/01/23 01:41:35;;;;;;;;;;;;;;;9.49;52.73;100424.13;4471557;32;34690;-67
2023/01/23 01:44:02;;;;;;;;;;;;;;;9.53;52.77;100431.03;4466334;32;34287;-67
2023/01/23 01:46:31;;;;;;;;;;;;;;;9.59;52.64;100421.78;4478866;31;34481;-67
2023/01/23 01:49:06;;;;;;;;;;;;;;;9.68;53.04;100431.06;4477610;32;34953;-67
2023/01/23 01:51:42;;;;;;;;;;;;;;;9.71;52.93;100422.84;4469600;32;33256;-66
2023/01/23 01:54:09;;;;;;;;;;;;;;;9.93;52.29;100422.41;4471939;32;34057;-66
2023/01/23 01:56:43;;;;;;;;;;;;;;;10.05;52.46;100419.00;4479326;32;33928;-66
2023/01/23 01:59:10;;;;;;;;;;;;;;;10.18;52.03;100414.59;4472470;32;33985;-66
2023/01/23 02:01:38;;;;;;;;;;;;;;;10.25;51.97;100415.06;4479291;31;33733;-65
2023/01/23 02:04:05;;;;;;;;;;;;;;;10.30;52.02;100412.97;4479760;32;32783;-66
2023/01/23 02:06:33;;;;;;;;;;;;;;;10.32;51.75;100411.06;4472688;32;35056;-67
2023/01/23 02:09:19;;;;;;;;;;;;;;;10.45;51.34;100406.66;4473461;32;34304;-67
2023/01/23 02:11:47;;;;;;;;;;;;;;;10.42;51.23;100404.19;4480741;32;34547;-66
2023/01/23 02:14:17;;;;;;;;;;;;;;;10.39;51.19;100404.38;4478699;32;34194;-66
2023/01/23 02:16:49;;;;;;;;;;;;;;;10.60;50.34;100404.81;4452955;32;34281;-68
2023/01/23 02:19:19;;;;;;;;;;;;;;;10.44;50.79;100412.12;4457953;32;34997;-69
2023/01/23 02:21:47;;;;;;;;;;;;;;;10.48;50.66;100406.47;4478177;32;33380;-67
2023/01/23 02:24:26;;;;;;;;;;;;;;;10.58;50.61;100416.59;4466490;32;34166;-67
2023/01/23 02:26:53;;;;;;;;;;;;;;;10.64;50.60;100408.16;4467568;32;34072;-67
2023/01/23 02:29:24;;;;;;;;;;;;;;;10.56;50.95;100410.47;4475305;32;35052;-67
2023/01/23 02:31:54;;;;;;;;;;;;;;;10.40;51.07;100410.56;4470274;32;34116;-67
2023/01/23 02:34:24;;;;;;;;;;;;;;;10.60;50.65;100412.84;4476177;32;34307;-69
2023/01/23 02:36:52;;;;;;;;;;;;;;;10.76;49.93;100409.19;4480521;32;34071;-64
2023/01/23 02:39:20;;;;;;;;;;;;;;;10.69;50.28;100409.59;4467960;32;34718;-67
2023/01/23 02:41:49;;;;;;;;;;;;;;;10.04;52.06;100417.25;4482366;32;33957;-66
2023/01/23 02:44:26;;;;;;;;;;;;;;;10.36;51.47;100409.91;4467680;32;34469;-67
2023/01/23 02:46:55;;;;;;;;;;;;;;;10.51;51.10;100402.75;4478488;32;34959;-66
2023/01/23 02:49:24;;;;;;;;;;;;;;;10.55;50.88;100400.72;4478683;31;32783;-65
2023/01/23 02:51:52;;;;;;;;;;;;;;;10.52;50.99;100403.59;4473329;32;34238;-66
2023/01/23 02:54:21;;;;;;;;;;;;;;;10.53;50.79;100389.25;4468665;32;35324;-65
2023/01/23 02:56:48;;;;;;;;;;;;;;;10.59;50.86;100391.53;4472629;32;35108;-64
2023/01/23 03:02:03;;;;;;;;;;;;;;;10.45;51.50;100374.53;4478973;32;33743;-68
2023/01/23 03:04:30;;;;;;;;;;;;;;;10.31;51.56;100384.44;4477608;32;33926;-68
2023/01/23 03:06:58;;;;;;;;;;;;;;;10.33;51.36;100378.00;4479011;32;34414;-66
2023/01/23 03:09:25;;;;;;;;;;;;;;;10.29;51.88;100373.81;4475645;32;33726;-67
2023/01/23 03:11:53;;;;;;;;;;;;;;;9.68;53.09;100372.25;4466573;32;32927;-65
2023/01/23 03:14:20;;;;;;;;;;;;;;;9.51;53.99;100382.16;4473216;32;33877;-66
2023/01/23 03:16:52;;;;;;;;;;;;;;;9.96;52.81;100369.59;4482670;31;34324;-67
2023/01/23 03:19:22;;;;;;;;;;;;;;;9.33;54.74;100383.25;4472739;32;34069;-69
2023/01/23 03:21:50;;;;;;;;;;;;;;;9.37;54.64;100376.75;4469052;32;32030;-66
2023/01/23 03:24:17;;;;;;;;;;;;;;;9.65;54.26;100364.41;4474759;32;34008;-67
2023/01/23 03:26:45;;;;;;;;;;;;;;;8.78;56.70;100379.31;4472689;32;34288;-66
2023/01/23 03:32:06;;;;;;;;;;;;;;;10.03;53.41;100367.41;4479754;32;34265;-66
2023/01/23 03:34:33;;;;;;;;;;;;;;;10.19;53.07;100359.25;4466137;32;32773;-68
2023/01/23 03:37:02;;;;;;;;;;;;;;;9.98;54.05;100358.78;4465287;32;34573;-68
2023/01/23 03:42:16;;;;;;;;;;;;;;;10.04;54.08;100353.91;4477693;32;33535;-68
2023/01/23 03:44:44;;;;;;;;;;;;;;;9.69;54.32;100360.59;4476079;32;33933;-66
2023/01/23 03:47:12;;;;;;;;;;;;;;;10.03;53.53;100354.03;4481927;32;34309;-66
2023/01/23 03:49:39;;;;;;;;;;;;;;;9.96;54.00;100344.69;4479265;32;35194;-66
2023/01/23 03:52:06;;;;;;;;;;;;;;;10.02;53.55;100353.16;4478479;32;33622;-67
2023/01/23 03:54:34;;;;;;;;;;;;;;;10.30;52.73;100350.56;4469562;32;32985;-67
2023/01/23 03:57:04;;;;;;;;;;;;;;;9.81;53.69;100357.16;4471601;31;33737;-66
2023/01/23 03:59:40;;;;;;;;;;;;;;;10.01;53.44;100354.09;4469866;32;34640;-65
2023/01/23 04:02:08;;;;;;;;;;;;;;;10.16;53.45;100356.78;4475672;31;33784;-67
2023/01/23 04:04:35;;;;;;;;;;;;;;;10.31;52.94;100360.34;4472910;32;34282;-69
2023/01/23 04:07:04;;;;;;;;;;;;;;;10.21;52.73;100360.91;4469257;32;34275;-66
2023/01/23 04:09:32;;;;;;;;;;;;;;;10.23;53.23;100358.09;4473848;32;34011;-68
2023/01/23 04:12:00;;;;;;;;;;;;;;;10.41;52.60;100358.78;4466035;32;34331;-66
2023/01/23 04:14:36;;;;;;;;;;;;;;;10.46;52.84;100370.94;4472390;32;34260;-69
2023/01/23 04:17:04;;;;;;;;;;;;;;;10.02;53.93;100363.00;4464846;32;34017;-66
2023/01/23 04:19:31;;;;;;;;;;;;;;;10.31;53.13;100369.22;4461876;32;34300;-66
2023/01/23 04:21:58;;;;;;;;;;;;;;;10.41;53.08;100366.81;4479924;32;33340;-68
2023/01/23 04:24:29;;;;;;;;;;;;;;;10.48;52.76;100357.44;4470522;32;34193;-69
2023/01/23 04:26:57;;;;;;;;;;;;;;;9.79;54.97;100370.66;4464913;32;34104;-66
2023/01/23 04:29:24;;;;;;;;;;;;;;;10.14;53.87;100361.38;4474930;32;33929;-65
2023/01/23 04:31:52;;;;;;;;;;;;;;;10.58;52.92;100366.56;4468876;32;34762;-68
2023/01/23 04:34:21;;;;;;;;;;;;;;;10.17;54.42;100366.53;4472212;32;34649;-67
2023/01/23 04:36:48;;;;;;;;;;;;;;;9.74;55.54;100363.84;4466799;32;33885;-65
2023/01/23 04:39:16;;;;;;;;;;;;;;;10.53;53.40;100362.47;4466989;32;34105;-67
2023/01/23 04:41:44;;;;;;;;;;;;;;;10.45;53.52;100373.69;4478042;32;33195;-67
2023/01/23 04:44:21;;;;;;;;;;;;;;;9.87;55.42;100366.63;4471709;31;33646;-67
2023/01/23 04:46:54;;;;;;;;;;;;;;;10.62;53.79;100370.75;4472733;32;33166;-67
2023/01/23 04:49:21;;;;;;;;;;;;;;;10.68;54.04;100362.34;4473821;31;35275;-67
2023/01/23 04:51:49;;;;;;;;;;;;;;;10.80;54.73;100362.50;4478853;32;33376;-68
2023/01/23 04:54:17;;;;;;;;;;;;;;;10.79;54.92;100367.00;4475333;32;33865;-67
2023/01/23 04:56:45;;;;;;;;;;;;;;;10.09;56.94;100366.16;4474309;32;34189;-68
2023/01/23 04:59:14;;;;;;;;;;;;;;;10.65;55.63;100369.72;4478531;32;34222;-67
2023/01/23 05:01:42;;;;;;;;;;;;;;;9.99;57.49;100369.41;4478459;31;33091;-67
2023/01/23 05:04:10;;;;;;;;;;;;;;;9.80;58.13;100371.50;4475101;32;34343;-66
2023/01/23 05:06:37;;;;;;;;;;;;;;;10.21;57.20;100381.44;4476058;31;34188;-66
2023/01/23 05:09:05;;;;;;;;;;;;;;;9.71;58.61;100377.41;4478155;32;34685;-67
2023/01/23 05:11:33;;;;;;;;;;;;;;;9.86;58.56;100383.63;4480999;32;34625;-69
2023/01/23 05:14:02;;;;;;;;;;;;;;;9.23;59.68;100382.94;4469727;32;33938;-65
2023/01/23 05:16:29;;;;;;;;;;;;;;;9.37;59.99;100392.78;4449880;32;34188;-68
2023/01/23 05:18:58;;;;;;;;;;;;;;;9.81;58.51;100381.22;4468842;32;32932;-69
2023/01/23 05:21:26;;;;;;;;;;;;;;;9.91;58.42;100377.03;4464672;31;34803;-68
2023/01/23 05:23:53;;;;;;;;;;;;;;;9.97;58.55;100383.81;4475090;31;33695;-65
2023/01/23 05:26:21;;;;;;;;;;;;;;;9.55;59.76;100385.50;4480657;31;35505;-67
2023/01/23 05:28:48;;;;;;;;;;;;;;;10.37;56.94;100389.34;4481995;31;34213;-68
2023/01/23 05:31:15;;;;;;;;;;;;;;;10.34;56.84;100390.44;4454773;32;34622;-69
2023/01/23 05:33:43;;;;;;;;;;;;;;;10.39;56.98;100393.66;4469291;31;35908;-68
2023/01/23 05:36:11;;;;;;;;;;;;;;;10.49;56.41;100391.25;4478347;31;34434;-69
2023/01/23 05:38:39;;;;;;;;;;;;;;;10.15;57.47;100384.50;4475426;32;34345;-68
2023/01/23 05:41:07;;;;;;;;;;;;;;;10.54;56.39;100389.16;4478618;32;34699;-67
2023/01/23 05:43:37;;;;;;;;;;;;;;;9.66;58.81;100387.50;4466546;32;34254;-68
2023/01/23 05:46:05;;;;;;;;;;;;;;;10.45;57.05;100387.91;4481131;32;34331;-68
2023/01/23 05:48:40;;;;;;;;;;;;;;;10.35;56.73;100389.47;4476023;32;34233;-67
2023/01/23 05:51:08;;;;;;;;;;;;;;;10.50;56.38;100395.69;4475627;32;33723;-68
2023/01/23 05:53:36;;;;;;;;;;;;;;;9.94;58.25;100394.72;4481281;32;34110;-67
2023/01/23 05:56:04;;;;;;;;;;;;;;;9.75;59.15;100398.50;4478216;31;32880;-66
2023/01/23 05:58:32;;;;;;;;;;;;;;;9.54;59.79;100400.69;4451789;32;34285;-67
2023/01/23 06:01:01;;;;;;;;;;;;;;;9.45;60.33;100390.53;4468961;32;34075;-67
2023/01/23 06:03:30;;;;;;;;;;;;;;;9.70;59.55;100394.41;4477229;31;35213;-66
2023/01/23 06:05:59;;;;;;;;;;;;;;;9.51;60.18;100406.19;4482443;31;33853;-67
2023/01/23 06:08:26;;;;;;;;;;;;;;;9.50;60.37;100412.50;4481158;32;35013;-68
2023/01/23 06:10:57;;;;;;;;;;;;;;;9.55;59.82;100410.41;4477906;32;33727;-68
2023/01/23 06:13:25;;;;;;;;;;;;;;;9.92;58.64;100416.22;4482370;32;33154;-67
2023/01/23 06:15:52;;;;;;;;;;;;;;;9.62;59.11;100416.25;4467582;32;35896;-67
2023/01/23 06:18:20;;;;;;;;;;;;;;;9.43;59.95;100412.94;4472601;32;32485;-66
2023/01/23 06:20:47;;;;;;;;;;;;;;;9.29;60.62;100413.78;4468715;32;33878;-68
2023/01/23 06:23:15;;;;;;;;;;;;;;;9.07;61.37;100430.19;4466877;32;35340;-67
2023/01/23 06:25:43;;;;;;;;;;;;;;;9.46;59.95;100426.97;4479941;32;35345;-67
2023/01/23 06:28:11;;;;;;;;;;;;;;;9.35;60.43;100434.78;4476626;31;34261;-67
2023/01/23 06:30:38;;;;;;;;;;;;;;;9.49;60.14;100432.16;4477689;32;33273;-66
2023/01/23 06:33:06;;;;;;;;;;;;;;;9.69;59.21;100433.63;4475601;32;34620;-67
2023/01/23 06:35:34;;;;;;;;;;;;;;;9.72;59.08;100443.28;4470139;32;35406;-67
2023/01/23 06:38:01;;;;;;;;;;;;;;;9.55;59.53;100450.50;4471085;32;33751;-67
2023/01/23 06:40:29;;;;;;;;;;;;;;;9.50;58.94;100449.94;4474826;32;33614;-68
2023/01/23 06:42:58;;;;;;;;;;;;;;;9.61;59.10;100449.28;4476450;32;34386;-68
2023/01/23 06:45:25;;;;;;;;;;;;;;;9.16;60.45;100453.69;4476337;32;35325;-67
2023/01/23 06:47:53;;;;;;;;;;;;;;;9.32;60.08;100461.69;4479419;32;33264;-67
2023/01/23 06:50:21;;;;;;;;;;;;;;;9.74;59.07;100462.78;4478630;31;34003;-69
2023/01/23 06:52:48;;;;;;;;;;;;;;;9.54;59.61;100462.16;4476935;32;33920;-69
2023/01/23 06:55:17;;;;;;;;;;;;;;;9.50;59.22;100463.28;4474550;32;34555;-70
2023/01/23 06:57:44;;;;;;;;;;;;;;;9.19;60.25;100453.50;4470631;32;35422;-70
2023/01/23 07:00:12;;;;;;;;;;;;;;;9.37;60.04;100461.41;4470422;31;33468;-69
2023/01/23 07:02:39;;;;;;;;;;;;;;;9.09;61.19;100471.88;4475396;32;34414;-66
2023/01/23 07:05:07;;;;;;;;;;;;;;;9.49;60.24;100474.91;4469015;32;34349;-67
2023/01/23 07:07:34;;;;;;;;;;;;;;;9.70;59.08;100474.59;4474658;32;35543;-68
2023/01/23 07:10:02;;;;;;;;;;;;;;;9.48;59.68;100478.53;4472500;32;33616;-68
2023/01/23 07:12:29;;;;;;;;;;;;;;;9.10;60.80;100488.75;4473469;32;35313;-72
2023/01/23 07:14:56;;;;;;;;;;;;;;;9.87;58.88;100484.28;4473210;32;33080;-69
2023/01/23 07:17:24;;;;;;;;;;;;;;;9.76;59.12;100490.28;4469588;32;35177;-68
2023/01/23 07:19:52;;;;;;;;;;;;;;;9.53;59.46;100494.28;4474193;32;31640;-67
2023/01/23 07:22:20;;;;;;;;;;;;;;;10.03;58.12;100491.28;4476303;31;34329;-68
2023/01/23 07:24:47;;;;;;;;;;;;;;;9.92;58.07;100488.41;4478708;32;36706;-67
2023/01/23 07:27:14;;;;;;;;;;;;;;;9.74;58.92;100490.34;4465979;32;33934;-67
2023/01/23 07:29:42;;;;;;;;;;;;;;;9.72;58.99;100492.25;4468187;32;34390;-65
2023/01/23 07:32:09;;;;;;;;;;;;;;;10.10;58.13;100493.59;4458168;32;33798;-67
2023/01/23 07:34:37;;;;;;;;;;;;;;;9.83;58.44;100490.78;4465478;32;34101;-66
2023/01/23 07:37:04;;;;;;;;;;;;;;;10.00;58.63;100487.94;4475638;31;33894;-66
2023/01/23 07:39:32;;;;;;;;;;;;;;;9.39;60.17;100500.44;4477626;32;33540;-66
2023/01/23 07:41:59;;;;;;;;;;;;;;;9.41;60.13;100492.34;4463694;32;34404;-65
2023/01/23 07:44:27;;;;;;;;;;;;;;;9.73;59.54;100495.81;4470328;32;33823;-72
2023/01/23 07:46:55;;;;;;;;;;;;;;;9.70;59.51;100494.16;4471442;32;34459;-67
2023/01/23 07:49:22;;;;;;;;;;;;;;;9.88;59.24;100494.00;4470098;31;33034;-67
2023/01/23 07:51:49;;;;;;;;;;;;;;;9.84;59.12;100500.50;4477762;32;32726;-66
2023/01/23 07:54:17;;;;;;;;;;;;;;;9.98;58.87;100487.16;4475483;31;34556;-68
2023/01/23 07:56:44;;;;;;;;;;;;;;;10.02;58.72;100494.06;4477298;32;35536;-68
2023/01/23 07:59:12;;;;;;;;;;;;;;;9.52;60.12;100496.09;4482298;31;32125;-67
2023/01/23 08:01:39;;;;;;;;;;;;;;;9.37;60.27;100496.12;4471969;31;35212;-66
2023/01/23 08:04:07;;;;;;;;;;;;;;;10.24;58.60;100498.94;4476790;31;35854;-67
2023/01/23 08:06:35;;;;;;;;;;;;;;;9.98;58.80;100496.06;4477847;32;33579;-67
2023/01/23 08:09:02;;;;;;;;;;;;;;;9.90;58.82;100497.47;4482020;32;34175;-67
2023/01/23 08:11:30;;;;;;;;;;;;;;;9.62;59.88;100500.91;4477117;31;34189;-66
2023/01/23 08:14:00;;;;;;;;;;;;;;;10.00;59.19;100494.13;4476755;31;33927;-65
2023/01/23 08:16:27;;;;;;;;;;;;;;;10.39;57.63;100492.69;4477000;32;34241;-66
2023/01/23 08:18:55;;;;;;;;;;;;;;;10.14;58.13;100497.78;4465635;31;31952;-66
2023/01/23 08:21:22;;;;;;;;;;;;;;;10.06;58.46;100494.72;4472275;32;35206;-67
2023/01/23 08:23:49;;;;;;;;;;;;;;;9.50;59.60;100492.69;4473196;31;34129;-66
2023/01/23 08:26:17;;;;;;;;;;;;;;;9.78;59.25;100501.72;4480077;32;33760;-66
2023/01/23 08:28:44;;;;;;;;;;;;;;;9.89;59.26;100499.28;4464465;32;33613;-67
2023/01/23 08:31:12;;;;;;;;;;;;;;;10.09;58.67;100498.06;4467619;32;35365;-66
2023/01/23 08:33:39;;;;;;;;;;;;;;;9.89;59.10;100501.97;4470681;32;33826;-67
2023/01/23 08:36:07;;;;;;;;;;;;;;;10.30;57.75;100497.75;4470414;31;34703;-67
2023/01/23 08:38:37;;;;;;;;;;;;;;;9.80;58.81;100494.47;4472580;31;32922;-67
2023/01/23 08:41:05;;;;;;;;;;;;;;;9.45;59.86;100499.22;4471065;32;35123;-67
2023/01/23 08:43:32;;;;;;;;;;;;;;;9.27;60.58;100506.47;4473484;32;35432;-67
2023/01/23 08:45:59;;;;;;;;;;;;;;;9.46;60.93;100504.47;4468964;32;34438;-68
2023/01/23 08:48:27;;;;;;;;;;;;;;;9.63;59.85;100516.88;4464429;32;34646;-67
2023/01/23 08:50:59;;;;;;;;;;;;;;;9.91;59.33;100510.72;4466054;32;34202;-67
2023/01/23 08:53:26;;;;;;;;;;;;;;;9.77;59.10;100516.06;4471503;32;34443;-67
2023/01/23 08:55:57;;;;;;;;;;;;;;;9.86;59.27;100520.84;4475984;31;35516;-67
2023/01/23 08:58:24;;;;;;;;;;;;;;;9.79;59.46;100522.16;4468922;31;32868;-66
2023/01/23 09:00:52;;;;;;;;;;;;;;;10.07;58.32;100515.16;4475819;32;35022;-66
2023/01/23 09:03:19;;;;;;;;;;;;;;;9.84;59.36;100521.91;4476600;32;34848;-67
2023/01/23 09:05:47;;;;;;;;;;;;;;;10.35;57.94;100517.06;4477683;32;34348;-67
2023/01/23 09:08:14;;;;;;;;;;;;;;;9.90;58.97;100526.88;4481664;32;34239;-67
2023/01/23 09:10:41;;;;;;;;;;;;;;;9.61;59.38;100526.78;4472478;32;34320;-67
2023/01/23 09:13:09;;;;;;;;;;;;;;;9.61;59.85;100521.44;4470468;32;35308;-67
2023/01/23 09:15:37;;;;;;;;;;;;;;;9.59;59.84;100522.47;4479032;31;35499;-66
2023/01/23 09:18:04;;;;;;;;;;;;;;;10.15;58.69;100518.25;4470248;32;34318;-66
2023/01/23 09:20:31;;;;;;;;;;;;;;;10.09;58.89;100523.97;4476138;31;33845;-66
2023/01/23 09:22:59;;;;;;;;;;;;;;;10.63;57.25;100522.41;4475471;32;34241;-66
2023/01/23 09:25:26;;;;;;;;;;;;;;;10.78;56.79;100517.91;4471564;31;34382;-66
2023/01/23 09:27:54;;;;;;;;;;;;;;;10.54;57.83;100522.13;4475653;31;33754;-66
2023/01/23 09:30:21;;;;;;;;;;;;;;;10.68;57.00;100516.75;4472136;32;34997;-66
2023/01/23 09:32:49;;;;;;;;;;;;;;;10.69;56.59;100516.69;4481744;32;34591;-66
2023/01/23 09:35:16;;;;;;;;;;;;;;;11.26;55.53;100521.06;4473061;32;35236;-66
2023/01/23 09:37:59;;;;;;;;;;;;;;;11.97;53.92;100508.34;4477460;32;34357;-67
2023/01/23 09:40:27;;;;;;;;;;;;;;;12.62;51.85;100515.47;4479807;31;32892;-66
2023/01/23 09:42:55;;;;;;;;;;;;;;;11.95;53.03;100502.25;4474587;32;34947;-66
2023/01/23 09:45:23;;;;;;;;;;;;;;;12.10;53.26;100507.41;4458098;32;34445;-66
2023/01/23 09:48:11;;;;;;;;;;;;;;;12.15;53.61;100503.53;4456616;32;32318;-66
2023/01/23 09:50:39;;;;;;;;;;;;;;;12.46;52.42;100511.19;4463535;31;34342;-66
2023/01/23 09:53:10;;;;;;;;;;;;;;;12.42;52.31;100512.34;4461148;32;34167;-66
2023/01/23 09:55:37;;;;;;;;;;;;;;;11.81;54.21;100512.06;4464413;32;34258;-67
2023/01/23 09:58:05;;;;;;;;;;;;;;;11.69;54.35;100512.03;4472080;31;33721;-67
2023/01/23 10:00:32;;;;;;;;;;;;;;;12.12;53.55;100509.97;4460528;32;34612;-67
2023/01/23 10:03:00;;;;;;;;;;;;;;;12.37;53.02;100497.53;4476987;31;34703;-67
2023/01/23 10:05:35;;;;;;;;;;;;;;;11.86;53.95;100503.72;4454786;32;34113;-66
2023/01/23 10:08:10;;;;;;;;;;;;;;;12.58;52.88;100513.00;4463562;32;32144;-67
2023/01/23 10:10:46;;;;;;;;;;;;;;;14.05;48.44;100501.25;4479320;31;34548;-67
2023/01/23 10:13:19;;;;;;;;;;;;;;;13.88;48.53;100509.78;4471763;32;34036;-67
2023/01/23 10:15:46;;;;;;;;;;;;;;;13.82;48.24;100502.16;4473022;32;33032;-67
2023/01/23 10:18:25;;;;;;;;;;;;;;;13.12;49.67;100513.62;4475261;32;33284;-67
2023/01/23 10:21:04;;;;;;;;;;;;;;;13.52;49.09;100503.50;4474847;32;32963;-67
2023/01/23 10:24:00;;;;;;;;;;;;;;;13.21;49.87;100510.28;4476131;31;34138;-67
2023/01/23 10:26:32;;;;;;;;;;;;;;;13.79;48.19;100499.69;4462481;32;34337;-67
2023/01/23 10:29:02;;;;;;;;;;;;;;;14.36;47.39;100509.62;4478796;32;34026;-67
2023/01/23 10:31:37;;;;;;;;;;;;;;;14.17;46.88;100508.37;4471705;32;34158;-67
2023/01/23 10:34:04;;;;;;;;;;;;;;;13.92;47.23;100503.16;4468556;32;35458;-67
2023/01/23 10:36:41;;;;;;;;;;;;;;;13.56;48.54;100512.22;4475924;32;34405;-67
2023/01/23 10:39:39;;;;;;;;;;;;;;;13.40;49.13;100516.03;4469065;32;31812;-67
2023/01/23 10:42:10;;;;;;;;;;;;;;;13.50;48.59;100506.31;4480106;32;33458;-67
2023/01/23 10:44:38;;;;;;;;;;;;;;;13.57;48.81;100506.69;4461296;32;34395;-67
2023/01/23 10:47:11;;;;;;;;;;;;;;;13.65;48.56;100509.69;4480479;32;34364;-67
2023/01/23 10:49:43;;;;;;;;;;;;;;;13.25;49.38;100504.56;4455928;32;33781;-67
2023/01/23 10:52:30;;;;;;;;;;;;;;;13.20;49.92;100495.97;4472394;32;32986;-67
2023/01/23 10:54:58;;;;;;;;;;;;;;;12.83;50.91;100506.69;4470298;32;34450;-67
2023/01/23 10:57:26;;;;;;;;;;;;;;;13.74;48.30;100495.53;4480131;32;34453;-67
2023/01/23 10:59:54;;;;;;;;;;;;;;;13.25;49.76;100488.44;4458327;32;33564;-67
2023/01/23 11:02:34;;;;;;;;;;;;;;;12.86;50.84;100485.97;4473675;32;34572;-68
2023/01/23 11:05:02;;;;;;;;;;;;;;;12.44;52.07;100488.06;4476369;32;34563;-68
2023/01/23 11:07:30;;;;;;;;;;;;;;;12.48;52.09;100482.38;4472593;32;32903;-67
2023/01/23 11:09:58;;;;;;;;;;;;;;;12.26;52.93;100471.44;4482256;32;33676;-67
2023/01/23 11:12:27;;;;;;;;;;;;;;;13.05;51.08;100486.34;4458904;32;32634;-68
2023/01/23 11:15:14;;;;;;;;;;;;;;;12.80;50.94;100484.56;4468856;32;35556;-67
2023/01/23 11:17:41;;;;;;;;;;;;;;;13.19;50.23;100488.00;4470210;32;34363;-67
2023/01/23 11:20:10;;;;;;;;;;;;;;;12.28;52.40;100489.16;4475989;32;33088;-67
2023/01/23 11:22:38;;;;;;;;;;;;;;;12.61;52.30;100481.50;4470676;32;34017;-67
2023/01/23 11:25:38;;;;;;;;;;;;;;;12.68;51.94;100475.59;4473185;32;33822;-67
2023/01/23 11:28:26;;;;;;;;;;;;;;;13.31;50.84;100478.22;4431324;32;34740;-66
2023/01/23 11:31:13;;;;;;;;;;;;;;;13.19;50.74;100470.06;4473043;32;32030;-67
2023/01/23 11:33:46;;;;;;;;;;;;;;;12.77;51.76;100461.47;4473758;31;35136;-67
2023/01/23 11:36:21;;;;;;;;;;;;;;;12.54;51.80;100456.91;4473493;32;33971;-66
2023/01/23 11:38:49;;;;;;;;;;;;;;;12.83;51.62;100458.34;4461488;32;32911;-67
2023/01/23 11:41:19;;;;;;;;;;;;;;;13.21;50.44;100457.37;4464127;32;32391;-67
2023/01/23 11:43:46;;;;;;;;;;;;;;;12.56;51.99;100450.47;4475180;32;35250;-67
2023/01/23 11:46:17;;;;;;;;;;;;;;;12.44;52.04;100451.34;4472047;32;34072;-66
2023/01/23 11:49:07;;;;;;;;;;;;;;;12.33;51.75;100452.12;4477382;32;36568;-66
2023/01/23 11:51:40;;;;;;;;;;;;;;;12.32;51.85;100442.31;4480152;32;32217;-66
2023/01/23 11:54:26;;;;;;;;;;;;;;;12.52;51.70;100438.25;4471591;32;34984;-66
2023/01/23 11:57:01;;;;;;;;;;;;;;;11.96;52.97;100443.09;4476501;32;35355;-66
2023/01/23 11:59:35;;;;;;;;;;;;;;;12.28;52.94;100445.34;4457118;32;35488;-66
2023/01/23 12:02:02;;;;;;;;;;;;;;;12.47;51.92;100442.22;4463446;32;33439;-66
2023/01/23 12:04:30;;;;;;;;;;;;;;;12.53;51.98;100437.28;4479120;32;34623;-66
2023/01/23 12:07:16;;;;;;;;;;;;;;;12.66;50.82;100437.25;4474008;32;34430;-66
2023/01/23 12:10:04;;;;;;;;;;;;;;;12.38;51.78;100442.88;4478991;32;35146;-66
2023/01/23 12:12:50;;;;;;;;;;;;;;;12.53;52.19;100439.94;4470368;32;34132;-66
2023/01/23 12:15:23;;;;;;;;;;;;;;;12.77;51.22;100447.19;4470937;32;33534;-66
2023/01/23 12:18:10;;;;;;;;;;;;;;;12.51;51.94;100432.97;4474167;32;34524;-66
2023/01/23 12:20:41;;;;;;;;;;;;;;;12.53;52.16;100437.28;4457733;32;34534;-67
2023/01/23 12:23:34;;;;;;;;;;;;;;;12.57;52.01;100436.06;4460476;32;32821;-67
2023/01/23 12:26:12;;;;;;;;;;;;;;;12.56;52.10;100444.25;4469143;31;32363;-66
2023/01/23 12:28:52;;;;;;;;;;;;;;;12.65;51.83;100440.03;4471345;31;34128;-67
2023/01/23 12:31:22;;;;;;;;;;;;;;;12.10;53.11;100442.12;4456947;32;33948;-67
2023/01/23 12:33:56;;;;;;;;;;;;;;;12.28;52.11;100443.53;4476732;32;33993;-67
2023/01/23 12:36:31;;;;;;;;;;;;;;;12.68;51.64;100438.00;4478139;32;34173;-67
2023/01/23 12:39:01;;;;;;;;;;;;;;;12.42;51.29;100449.72;4471500;32;35080;-67
2023/01/23 12:41:35;;;;;;;;;;;;;;;12.74;50.12;100442.03;4474848;32;34386;-66
2023/01/23 12:44:21;;;;;;;;;;;;;;;12.41;51.45;100446.19;4474955;32;33436;-67
2023/01/23 12:46:49;;;;;;;;;;;;;;;12.43;51.25;100438.03;4468816;32;34038;-67
2023/01/23 12:49:46;;;;;;;;;;;;;;;12.64;51.08;100443.69;4477777;32;34463;-67
2023/01/23 12:52:27;;;;;;;;;;;;;;;12.57;50.47;100448.62;4449234;32;34667;-67
2023/01/23 12:55:02;;;;;;;;;;;;;;;12.12;51.77;100440.19;4459001;32;33158;-66
2023/01/23 12:57:39;;;;;;;;;;;;;;;12.42;51.41;100444.37;4453214;32;35265;-66
2023/01/23 13:00:35;;;;;;;;;;;;;;;12.68;50.95;100450.53;4474442;32;34252;-67
2023/01/23 13:03:03;;;;;;;;;;;;;;;12.81;50.51;100448.72;4470453;32;35226;-67